Time;durP1;ratioP1;P1;durP2;ratioP2;P2;SDS_P1;SDS_P2;PMS_P1;PMS_P2;Temp;Humidity;BMP_temperature;BMP_pressure;BME280_temperature;BME280_humidity;BME280_pressure;Samples;Min_cycle;Max_cycle;Signal;HPM_P1;HPM_P2
2021/11/08 00:02:21;311790.00;1.04;538.19;0.00;0.00;0.62;;;;;13.90;1.00;;;;;;2268883;61;1362;-85
2021/11/08 00:04:48;815191.00;2.72;1407.63;0.00;0.00;0.62;;;;;14.10;1.00;;;;;;2268925;61;1099;-86
2021/11/08 00:07:16;504405.00;1.68;869.41;0.00;0.00;0.62;;;;;14.70;1.00;;;;;;2268868;61;1313;-87
2021/11/08 00:09:44;377791.00;1.26;651.63;0.00;0.00;0.62;;;;;15.10;1.00;;;;;;2268833;61;1141;-87
2021/11/08 00:12:16;396081.00;1.32;683.07;0.00;0.00;0.62;;;;;15.40;1.00;;;;;;2268797;61;1324;-86
2021/11/08 00:14:44;309684.00;1.03;534.57;0.00;0.00;0.62;;;;;15.60;1.00;;;;;;2268794;61;1082;-86
2021/11/08 00:17:20;259780.00;0.87;448.77;8592.00;0.03;15.51;;;;;15.60;1.00;;;;;;2268818;61;1261;-87
2021/11/08 00:19:59;163744.00;0.55;283.49;0.00;0.00;0.62;;;;;15.70;1.00;;;;;;2268789;61;1919;-86
2021/11/08 00:22:27;348716.00;1.16;601.65;0.00;0.00;0.62;;;;;15.40;1.00;;;;;;2272284;61;1400;-87
2021/11/08 00:24:55;386598.00;1.29;666.77;0.00;0.00;0.62;;;;;15.00;1.00;;;;;;2272380;61;988;-86
2021/11/08 00:27:23;291911.00;0.97;504.01;0.00;0.00;0.62;;;;;14.70;1.00;;;;;;2272292;61;1094;-86
2021/11/08 00:29:51;501367.00;1.67;864.18;0.00;0.00;0.62;;;;;13.90;1.00;;;;;;2265642;61;1009;-86
2021/11/08 00:32:18;292300.00;0.97;504.68;0.00;0.00;0.62;;;;;13.90;1.00;;;;;;2264105;61;1400;-87
2021/11/08 00:34:46;344871.00;1.15;595.05;0.00;0.00;0.62;;;;;14.40;1.00;;;;;;2264235;61;980;-87
2021/11/08 00:37:13;501581.00;1.67;864.55;0.00;0.00;0.62;;;;;14.40;1.00;;;;;;2252168;61;930;-86
2021/11/08 00:39:40;320361.00;1.07;552.92;0.00;0.00;0.62;;;;;14.50;1.00;;;;;;2252169;61;1920;-87
2021/11/08 00:42:07;473442.00;1.58;816.11;0.00;0.00;0.62;;;;;14.10;1.00;;;;;;2248128;61;1402;-86
2021/11/08 00:44:36;416315.00;1.39;717.85;0.00;0.00;0.62;;;;;14.30;1.00;;;;;;2248129;61;1097;-87
2021/11/08 00:47:07;332276.00;1.11;573.40;0.00;0.00;0.62;;;;;14.80;1.00;;;;;;2248255;61;1017;-87
2021/11/08 00:49:36;387788.00;1.29;668.81;0.00;0.00;0.62;;;;;15.00;1.00;;;;;;2248267;61;1013;-86
2021/11/08 00:52:04;562893.00;1.88;970.19;5972.00;0.02;10.97;;;;;15.20;1.00;;;;;;2248156;61;1532;-87
2021/11/08 00:54:31;318385.00;1.06;549.52;0.00;0.00;0.62;;;;;15.50;1.00;;;;;;2250180;61;1123;-88
2021/11/08 00:57:00;272460.00;0.91;470.57;0.00;0.00;0.62;;;;;15.60;1.00;;;;;;2264743;61;1079;-87
2021/11/08 00:59:27;445434.00;1.48;767.93;28454.00;0.09;49.91;;;;;15.70;1.00;;;;;;2268235;61;1192;-87
2021/11/08 01:01:58;374835.00;1.25;646.55;0.00;0.00;0.62;;;;;15.90;1.00;;;;;;2268570;61;2002;-87
2021/11/08 01:04:25;420287.00;1.40;724.68;0.00;0.00;0.62;;;;;15.40;1.00;;;;;;2268576;61;1122;-86
2021/11/08 01:06:58;364101.00;1.21;628.10;0.00;0.00;0.62;;;;;15.00;1.00;;;;;;2268594;61;1161;-87
2021/11/08 01:09:26;382761.00;1.28;660.17;0.00;0.00;0.62;;;;;14.30;1.00;;;;;;2268593;61;1204;-87
2021/11/08 01:11:53;358751.00;1.20;618.90;0.00;0.00;0.62;;;;;14.30;1.00;;;;;;2268562;61;1373;-86
2021/11/08 01:14:20;207453.00;0.69;358.75;0.00;0.00;0.62;;;;;13.90;1.00;;;;;;2268598;61;1023;-86
2021/11/08 01:16:54;333141.00;1.11;574.88;0.00;0.00;0.62;;;;;13.80;1.00;;;;;;2268601;61;1037;-87
2021/11/08 01:19:23;372299.00;1.24;642.19;0.00;0.00;0.62;;;;;13.00;1.00;;;;;;2268590;61;1600;-87
2021/11/08 01:21:52;367994.00;1.23;634.79;0.00;0.00;0.62;;;;;12.70;1.00;;;;;;2268474;61;2031;-87
2021/11/08 01:24:20;323811.00;1.08;558.85;0.00;0.00;0.62;;;;;12.30;1.00;;;;;;2268539;61;1533;-87
2021/11/08 01:26:48;459055.00;1.53;791.36;0.00;0.00;0.62;;;;;12.10;1.00;;;;;;2268593;61;1177;-87
2021/11/08 01:29:15;258431.00;0.86;446.45;0.00;0.00;0.62;;;;;12.30;1.00;;;;;;2268554;61;1094;-87
2021/11/08 01:31:42;225816.00;0.75;390.35;0.00;0.00;0.62;;;;;12.50;1.00;;;;;;2268461;61;1734;-87
2021/11/08 01:34:10;510854.00;1.70;880.51;0.00;0.00;0.62;;;;;12.40;1.00;;;;;;2268496;61;1311;-86
2021/11/08 01:36:41;457924.00;1.53;789.41;15362.00;0.05;27.24;;;;;12.80;1.00;;;;;;2263928;61;1022;-87
2021/11/08 01:41:49;71443.00;0.24;124.25;0.00;0.00;0.62;;;;;13.10;1.00;;;;;;2259870;61;1998;-87
2021/11/08 01:44:16;297804.00;0.99;514.15;0.00;0.00;0.62;;;;;13.70;1.00;;;;;;2255799;61;1018;-87
2021/11/08 01:46:44;548017.00;1.83;944.54;0.00;0.00;0.62;;;;;14.20;1.00;;;;;;2243953;61;1006;-87
2021/11/08 01:49:11;328797.00;1.10;567.42;0.00;0.00;0.62;;;;;14.50;1.00;;;;;;2244039;61;1026;-87
2021/11/08 01:51:39;624538.00;2.08;1076.61;30134.00;0.10;52.82;;;;;14.90;1.00;;;;;;2237420;61;1471;-87
2021/11/08 01:54:08;383047.00;1.28;660.66;8770.00;0.03;15.82;;;;;15.00;1.00;;;;;;2242601;61;974;-87
2021/11/08 01:56:35;272380.00;0.91;470.44;0.00;0.00;0.62;;;;;14.80;1.00;;;;;;2245306;61;966;-87
2021/11/08 01:59:03;327639.00;1.09;565.43;0.00;0.00;0.62;;;;;14.90;1.00;;;;;;2251496;61;1050;-87
2021/11/08 02:01:31;398020.00;1.33;686.40;25991.00;0.09;45.64;;;;;14.70;1.00;;;;;;2245808;61;1932;-88
2021/11/08 02:03:58;390576.00;1.30;673.60;0.00;0.00;0.62;;;;;14.70;1.00;;;;;;2257447;61;971;-86
2021/11/08 02:06:25;267707.00;0.89;462.40;0.00;0.00;0.62;;;;;14.60;1.00;;;;;;2267895;61;1673;-87
2021/11/08 02:08:53;345224.00;1.15;595.65;0.00;0.00;0.62;;;;;15.00;1.00;;;;;;2261287;61;959;-87
2021/11/08 02:11:22;154275.00;0.51;267.17;0.00;0.00;0.62;;;;;14.80;1.00;;;;;;2264531;61;1458;-87
2021/11/08 02:13:50;240949.00;0.80;416.38;0.00;0.00;0.62;;;;;15.10;1.00;;;;;;2263535;61;944;-87
2021/11/08 02:16:17;222480.00;0.74;384.61;0.00;0.00;0.62;;;;;15.40;1.00;;;;;;2263714;61;1036;-88
2021/11/08 02:18:45;275295.00;0.92;475.45;0.00;0.00;0.62;;;;;15.60;1.00;;;;;;2263881;61;957;-88
2021/11/08 02:21:14;111205.00;0.37;192.91;0.00;0.00;0.62;;;;;15.70;1.00;;;;;;2263816;61;1914;-88
2021/11/08 02:23:43;267994.00;0.89;462.89;0.00;0.00;0.62;;;;;15.70;1.00;;;;;;2263795;61;936;-88
2021/11/08 02:26:14;216856.00;0.72;374.93;0.00;0.00;0.62;;;;;15.70;1.00;;;;;;2263781;61;1019;-88
2021/11/08 02:28:44;227751.00;0.76;393.68;0.00;0.00;0.62;;;;;15.70;1.00;;;;;;2263854;61;1025;-88
2021/11/08 02:31:13;76246.00;0.25;132.55;0.00;0.00;0.62;;;;;15.90;1.00;;;;;;2256570;61;1326;-87
2021/11/08 02:33:41;201293.00;0.67;348.15;0.00;0.00;0.62;;;;;15.90;1.00;;;;;;2249874;61;994;-88
2021/11/08 02:36:09;119456.00;0.40;207.14;0.00;0.00;0.62;;;;;16.10;1.00;;;;;;2259828;61;1022;-87
2021/11/08 02:38:41;234031.00;0.78;404.48;0.00;0.00;0.62;;;;;15.90;1.00;;;;;;2247805;61;979;-88
2021/11/08 02:41:09;198371.00;0.66;343.12;0.00;0.00;0.62;;;;;15.40;1.00;;;;;;2247806;61;1925;-89
2021/11/08 02:43:37;289150.00;0.96;499.27;47001.00;0.16;82.00;;;;;15.40;1.00;;;;;;2247836;61;1022;-88
2021/11/08 02:46:07;182081.00;0.61;315.07;0.00;0.00;0.62;;;;;15.60;1.00;;;;;;2247915;61;967;-88
2021/11/08 02:48:36;395226.00;1.32;681.60;0.00;0.00;0.62;;;;;15.70;1.00;;;;;;2246261;61;983;-88
2021/11/08 02:51:09;131700.00;0.44;228.26;0.00;0.00;0.62;;;;;15.90;1.00;;;;;;2249053;61;1417;-87
2021/11/08 02:53:38;169398.00;0.56;293.23;0.00;0.00;0.62;;;;;15.80;1.00;;;;;;2255752;61;994;-87
2021/11/08 02:56:07;178083.00;0.59;308.19;0.00;0.00;0.62;;;;;15.10;1.00;;;;;;2247687;61;988;-88
2021/11/08 02:58:34;322091.00;1.07;555.89;0.00;0.00;0.62;;;;;14.90;1.00;;;;;;2243770;61;954;-88
2021/11/08 03:01:03;398656.00;1.33;687.49;0.00;0.00;0.62;;;;;14.90;1.00;;;;;;2240595;61;1997;-88
2021/11/08 03:03:35;291232.00;0.97;502.85;0.00;0.00;0.62;;;;;15.20;1.00;;;;;;2251746;61;955;-88
2021/11/08 03:06:10;203002.00;0.68;351.09;0.00;0.00;0.62;;;;;15.40;1.00;;;;;;2255668;61;1094;-88
2021/11/08 03:08:38;55705.00;0.19;97.05;0.00;0.00;0.62;;;;;15.00;1.00;;;;;;2255761;61;1022;-87
2021/11/08 03:11:05;276009.00;0.92;476.68;0.00;0.00;0.62;;;;;15.20;1.00;;;;;;2255483;61;1294;-88
2021/11/08 03:13:34;149181.00;0.50;258.40;0.00;0.00;0.62;;;;;14.90;1.00;;;;;;2260400;61;1007;-89
2021/11/08 03:16:07;327486.00;1.09;565.17;0.00;0.00;0.62;;;;;15.00;1.00;;;;;;2258928;61;1037;-88
2021/11/08 03:18:39;55637.00;0.19;96.93;0.00;0.00;0.62;;;;;15.40;1.00;;;;;;2271784;61;1072;-87
2021/11/08 03:21:14;154237.00;0.51;267.11;0.00;0.00;0.62;;;;;15.40;1.00;;;;;;2271679;61;1984;-88
2021/11/08 03:23:43;46013.00;0.15;80.29;0.00;0.00;0.62;;;;;15.20;1.00;;;;;;2271751;61;1048;-88
2021/11/08 03:26:16;39411.00;0.13;68.87;0.00;0.00;0.62;;;;;15.30;1.00;;;;;;2271867;61;1055;-87
2021/11/08 03:28:43;0.00;0.00;0.62;0.00;0.00;0.62;;;;;15.40;1.00;;;;;;2272424;61;1027;-88
2021/11/08 03:31:11;276755.00;0.92;477.96;0.00;0.00;0.62;;;;;15.00;1.00;;;;;;2271250;61;1527;-87
2021/11/08 03:33:39;244650.00;0.82;422.75;0.00;0.00;0.62;;;;;14.90;1.00;;;;;;2272364;61;969;-87
2021/11/08 03:36:08;377518.00;1.26;651.16;0.00;0.00;0.62;;;;;14.90;1.00;;;;;;2265740;61;966;-87
2021/11/08 03:38:37;485026.00;1.62;836.05;0.00;0.00;0.62;;;;;14.90;1.00;;;;;;2260316;61;973;-87
2021/11/08 03:41:07;344566.00;1.15;594.52;0.00;0.00;0.62;;;;;15.10;1.00;;;;;;2260262;61;1912;-88
2021/11/08 03:43:36;320060.00;1.07;552.40;0.00;0.00;0.62;;;;;14.90;1.00;;;;;;2260331;61;1114;-88
2021/11/08 03:46:03;397881.00;1.33;686.16;0.00;0.00;0.62;;;;;14.60;1.00;;;;;;2253609;61;1010;-88
2021/11/08 03:48:31;497002.00;1.66;856.66;32889.00;0.11;57.58;;;;;14.50;1.00;;;;;;2260357;61;1006;-88
2021/11/08 03:50:58;260818.00;0.87;450.56;0.00;0.00;0.62;;;;;14.40;1.00;;;;;;2260185;61;1718;-88
2021/11/08 03:53:25;190198.00;0.63;329.05;0.00;0.00;0.62;;;;;14.60;1.00;;;;;;2256822;61;974;-88
2021/11/08 03:55:53;336292.00;1.12;580.30;0.00;0.00;0.62;;;;;14.70;1.00;;;;;;2261737;61;1020;-87
2021/11/08 03:58:22;266014.00;0.89;459.49;0.00;0.00;0.62;;;;;14.80;1.00;;;;;;2268717;61;1071;-88
2021/11/08 04:00:50;414176.00;1.38;714.18;9257.00;0.03;16.66;;;;;14.60;1.00;;;;;;2268745;61;1915;-88
2021/11/08 04:03:17;206924.00;0.69;357.84;0.00;0.00;0.62;;;;;14.50;1.00;;;;;;2268624;61;1246;-88
2021/11/08 04:05:44;239518.00;0.80;413.92;0.00;0.00;0.62;;;;;14.40;1.00;;;;;;2268758;61;928;-87
2021/11/08 04:08:16;18220.00;0.06;32.19;0.00;0.00;0.62;;;;;14.40;1.00;;;;;;2268239;61;1019;-88
2021/11/08 04:10:44;25772.00;0.09;45.26;0.00;0.00;0.62;;;;;13.80;1.00;;;;;;2268694;61;945;-88
2021/11/08 04:13:13;55489.00;0.18;96.68;0.00;0.00;0.62;;;;;13.60;1.00;;;;;;2271574;61;1405;-89
2021/11/08 04:15:44;70772.00;0.24;123.09;0.00;0.00;0.62;;;;;13.10;1.00;;;;;;2268642;61;913;-87
2021/11/08 04:18:15;83285.00;0.28;144.71;0.00;0.00;0.62;;;;;13.30;1.00;;;;;;2272232;61;982;-87
2021/11/08 04:20:44;31639.00;0.11;55.42;0.00;0.00;0.62;;;;;13.10;1.00;;;;;;2271965;61;1190;-87
2021/11/08 04:23:14;40211.00;0.13;70.25;0.00;0.00;0.62;;;;;13.40;1.00;;;;;;2272060;61;1630;-87
2021/11/08 04:25:42;41887.00;0.14;73.15;0.00;0.00;0.62;;;;;14.00;1.00;;;;;;2263985;61;949;-87
2021/11/08 04:28:09;51146.00;0.17;89.17;0.00;0.00;0.62;;;;;13.90;1.00;;;;;;2254245;61;986;-87
2021/11/08 04:30:42;171682.00;0.57;297.16;17275.00;0.06;30.55;;;;;14.00;1.00;;;;;;2264215;61;966;-87
2021/11/08 04:33:18;108593.00;0.36;188.40;0.00;0.00;0.62;;;;;14.30;1.00;;;;;;2251943;61;1298;-87
2021/11/08 04:35:55;0.00;0.00;0.62;0.00;0.00;0.62;;;;;14.40;1.00;;;;;;2252154;61;1017;-87
2021/11/08 04:38:32;39018.00;0.13;68.19;0.00;0.00;0.62;;;;;14.20;1.00;;;;;;2251824;61;1009;-88
2021/11/08 04:41:15;10091.00;0.03;18.11;0.00;0.00;0.62;;;;;14.40;1.00;;;;;;2244051;61;2014;-87
2021/11/08 04:43:52;219506.00;0.73;379.49;48881.00;0.16;85.25;;;;;14.30;1.00;;;;;;2247775;61;965;-87
2021/11/08 04:46:42;27129.00;0.09;47.61;0.00;0.00;0.62;;;;;14.30;1.00;;;;;;2252084;61;1088;-87
2021/11/08 04:49:19;31445.00;0.10;55.08;0.00;0.00;0.62;;;;;14.10;1.00;;;;;;2252074;61;1012;-87
2021/11/08 04:51:54;67453.00;0.22;117.36;0.00;0.00;0.62;;;;;14.00;1.00;;;;;;2244051;61;1279;-87
2021/11/08 04:54:29;130669.00;0.44;226.48;0.00;0.00;0.62;;;;;13.40;1.00;;;;;;2243978;61;1650;-86
2021/11/08 04:57:18;306549.00;1.02;529.18;0.00;0.00;0.62;;;;;13.50;1.00;;;;;;2241818;61;1018;-87
2021/11/08 05:22:00;90948.00;0.30;157.94;0.00;0.00;0.62;;;;;13.30;1.00;;;;;;2268483;61;1976;-87
2021/11/08 05:30:05;0.00;0.00;0.62;0.00;0.00;0.62;;;;;13.20;1.00;;;;;;2259925;61;946;-87
2021/11/08 05:32:35;10329.00;0.03;18.52;0.00;0.00;0.62;;;;;13.60;1.00;;;;;;2259994;61;1421;-86
2021/11/08 05:35:03;103731.00;0.35;180.01;0.00;0.00;0.62;;;;;13.70;1.00;;;;;;2259780;61;998;-86
2021/11/08 05:37:32;52489.00;0.17;91.49;0.00;0.00;0.62;;;;;14.00;1.00;;;;;;2259767;61;1161;-88
2021/11/08 05:40:06;125522.00;0.42;217.61;4101.00;0.01;7.73;;;;;13.70;1.00;;;;;;2247934;61;988;-87
2021/11/08 06:50:23;43719.00;0.15;76.32;0.00;0.00;0.62;;;;;13.20;1.00;;;;;;2263296;61;879;-89
2021/11/08 08:07:09;956568.00;3.19;1655.70;76843.00;0.26;133.58;;;;;12.10;1.00;;;;;;2263527;61;1305;-87
2021/11/08 08:12:06;1179067.00;3.93;2052.42;123774.00;0.41;214.59;;;;;12.80;1.00;;;;;;2263510;61;1301;-85
2021/11/08 08:36:52;1279336.00;4.26;2234.34;158911.00;0.53;275.16;;;;;12.60;1.00;;;;;;2490685;40;3619;31
2021/11/08 08:59:05;24845.00;0.08;43.66;0.00;0.00;0.62;;;;;13.20;1.00;;;;;;2263399;61;1301;-87
2021/11/08 11:54:33;259182.00;0.86;447.74;0.00;0.00;0.62;;;;;11.70;1.00;;;;;;2259417;61;942;-86
2021/11/08 12:44:16;312543.00;1.04;539.48;3133.00;0.01;6.05;;;;;12.30;1.00;;;;;;2497356;40;3617;31
2021/11/08 13:04:09;1486006.00;4.95;2616.82;244292.00;0.81;422.13;;;;;12.20;1.00;;;;;;2262885;61;1362;-86
2021/11/08 13:06:37;121613536.00;405.38;72864512.00;241493.00;0.80;417.32;;;;;12.00;1.00;;;;;;2257828;61;919;-85
2021/11/08 13:33:50;112837.00;0.38;195.73;0.00;0.00;0.62;;;;;12.20;1.00;;;;;;2493502;40;3632;31
2021/11/08 14:30:47;161453.00;0.54;279.54;0.00;0.00;0.62;;;;;11.80;1.00;;;;;;2409801;40;4428;31
2021/11/08 14:33:16;175979.00;0.59;304.56;0.00;0.00;0.62;;;;;11.60;1.00;;;;;;2258826;61;1377;-86
2021/11/08 15:10:14;1011628.00;3.37;1753.08;90541.00;0.30;157.24;;;;;11.80;1.00;;;;;;2495864;40;3686;31
2021/11/08 15:30:06;596222.00;1.99;1027.70;87857.00;0.29;152.61;;;;;11.80;1.00;;;;;;2263729;61;1309;-87
2021/11/08 15:35:12;784419.00;2.61;1353.96;108953.00;0.36;189.02;;;;;11.80;1.00;;;;;;2263641;61;1300;-87
2021/11/08 15:52:29;444444.00;1.48;766.23;82879.00;0.28;144.01;;;;;11.40;1.00;;;;;;2263007;61;1510;-86
2021/11/08 16:14:39;662525.00;2.21;1142.31;107439.00;0.36;186.41;;;;;12.10;1.00;;;;;;2262937;61;1415;-84
2021/11/08 16:41:47;283917.00;0.95;490.27;82198.00;0.27;142.83;;;;;10.90;1.00;;;;;;2263178;61;1412;-82
2021/11/08 16:49:09;313061.00;1.04;540.37;100572.00;0.34;174.56;;;;;11.30;1.00;;;;;;2262850;61;1412;-85
2021/11/08 16:51:39;217969.00;0.73;376.85;0.00;0.00;0.62;;;;;11.30;1.00;;;;;;2261218;61;946;-84
2021/11/08 16:54:06;434622.00;1.45;749.33;152680.00;0.51;264.43;;;;;11.70;1.00;;;;;;2408457;40;2007;-84
2021/11/08 16:56:35;239769.00;0.80;414.35;95169.00;0.32;165.23;;;;;12.10;1.00;;;;;;2262445;61;1360;-81
2021/11/08 16:59:06;422641.00;1.41;728.73;112131.00;0.37;194.51;;;;;12.50;1.00;;;;;;2261119;61;892;-84
2021/11/08 17:04:01;384684.00;1.28;663.48;81823.00;0.27;142.19;;;;;13.30;1.00;;;;;;2415920;40;3748;31
2021/11/08 17:06:29;632484.00;2.11;1090.34;147398.00;0.49;255.32;;;;;13.60;1.00;;;;;;2257314;61;1349;-85
2021/11/08 17:14:19;331819.00;1.11;572.61;91880.00;0.31;159.55;;;;;14.10;1.00;;;;;;2252466;61;1571;-85
2021/11/08 18:23:32;351029.00;1.17;605.63;27989.00;0.09;49.10;;;;;15.00;1.00;;;;;;2262964;61;1894;-86
2021/11/08 19:42:22;554908.00;1.85;956.42;0.00;0.00;0.62;;;;;15.20;1.00;;;;;;2263160;61;1887;-87
2021/11/08 20:26:43;1151501.00;3.84;2002.77;137921.00;0.46;238.99;;;;;13.50;1.00;;;;;;2462945;40;3817;31
2021/11/08 20:37:04;438398.00;1.46;755.83;84645.00;0.28;147.06;;;;;13.90;1.00;;;;;;2263413;61;913;-86
2021/11/08 21:56:16;1213076.00;4.04;2113.88;75927.00;0.25;132.00;;;;;10.30;1.00;;;;;;2262890;61;936;-88
2021/11/08 23:08:01;1311623.00;4.37;2293.39;121592.00;0.41;210.83;;;;;7.80;1.00;;;;;;2497601;55;3619;31
